Time;durP1;ratioP1;P1;durP2;ratioP2;P2;SDS_P1;SDS_P2;PMS_P1;PMS_P2;Temp;Humidity;BMP_temperature;BMP_pressure;BME280_temperature;BME280_humidity;BME280_pressure;Samples;Min_cycle;Max_cycle;Signal;HPM_P1;HPM_P2
2024/01/22 00:01:04;;;;;;;11.05;7.80;;;;;;;-6.32;100.00;99189.00;1224629;75;2923469;-66
2024/01/22 00:03:36;;;;;;;11.65;7.70;;;;;;;-6.36;100.00;99183.50;1224465;75;2918157;-64
2024/01/22 00:06:10;;;;;;;10.90;7.80;;;;;;;-6.43;100.00;99183.25;1225302;75;2924502;-66
2024/01/22 00:08:43;;;;;;;15.15;9.70;;;;;;;-6.67;100.00;99167.91;1224762;75;2921209;-66
2024/01/22 00:11:18;;;;;;;13.35;8.85;;;;;;;-6.52;100.00;99169.97;1223972;75;2920256;-65
2024/01/22 00:13:51;;;;;;;13.50;8.35;;;;;;;-6.68;100.00;99172.47;1224496;75;2919357;-64
2024/01/22 00:16:24;;;;;;;12.90;8.25;;;;;;;-6.62;100.00;99175.69;1224628;75;2920908;-65
2024/01/22 00:18:56;;;;;;;12.15;8.00;;;;;;;-6.60;100.00;99178.06;1225077;75;2918875;-66
2024/01/22 00:21:29;;;;;;;11.85;8.10;;;;;;;-6.66;100.00;99180.13;1224842;75;2919227;-65
2024/01/22 00:24:02;;;;;;;11.15;7.55;;;;;;;-6.61;100.00;99179.13;1223910;75;2932386;-65
2024/01/22 00:26:38;;;;;;;13.20;8.25;;;;;;;-6.78;100.00;99172.84;1224831;75;2915594;-66
2024/01/22 00:29:11;;;;;;;13.85;9.60;;;;;;;-6.94;100.00;99161.19;1224903;75;2917470;-63
2024/01/22 00:31:44;;;;;;;18.60;10.85;;;;;;;-6.80;100.00;99150.31;1224605;75;2917881;-65
2024/01/22 00:34:16;;;;;;;14.95;10.30;;;;;;;-6.80;100.00;99152.97;1223917;75;2918374;-66
2024/01/22 00:36:49;;;;;;;14.60;9.30;;;;;;;-6.69;100.00;99149.56;1224443;75;2919551;-65
2024/01/22 00:39:22;;;;;;;11.40;8.30;;;;;;;-6.62;100.00;99142.97;1224134;75;2920032;-64
2024/01/22 00:41:58;;;;;;;12.70;8.15;;;;;;;-6.66;100.00;99137.53;1224013;75;2921288;-66
2024/01/22 00:44:31;;;;;;;11.85;7.30;;;;;;;-6.72;100.00;99147.56;1224834;75;2922735;-63
2024/01/22 00:47:04;;;;;;;9.05;6.60;;;;;;;-6.71;100.00;99138.50;1224774;67;2921053;-66
2024/01/22 00:49:36;;;;;;;9.60;6.75;;;;;;;-6.71;100.00;99138.50;1225063;75;2919992;-66
2024/01/22 00:52:10;;;;;;;11.05;7.70;;;;;;;-6.82;100.00;99137.31;1225240;75;2923307;-65
2024/01/22 00:54:42;;;;;;;13.35;9.10;;;;;;;-6.90;100.00;99133.59;1223395;75;2925745;-66
2024/01/22 00:57:19;;;;;;;16.10;8.30;;;;;;;-6.77;100.00;99145.09;1225735;75;2918695;-63
2024/01/22 00:59:52;;;;;;;13.55;8.70;;;;;;;-6.82;100.00;99147.19;1224863;75;2911754;-64
2024/01/22 01:02:24;;;;;;;12.45;8.25;;;;;;;-6.94;100.00;99148.66;1225092;75;2919053;-66
2024/01/22 01:04:57;;;;;;;10.95;7.40;;;;;;;-6.90;100.00;99143.47;1225723;75;2918582;-65
2024/01/22 01:07:30;;;;;;;10.65;7.85;;;;;;;-6.98;100.00;99147.72;1224822;75;2923811;-65
2024/01/22 01:10:03;;;;;;;12.95;8.10;;;;;;;-6.89;100.00;99143.13;1225106;75;2920204;-63
2024/01/22 01:12:38;;;;;;;14.40;9.45;;;;;;;-7.22;100.00;99153.63;1225532;75;2923818;-62
2024/01/22 01:15:13;;;;;;;13.55;9.05;;;;;;;-7.29;100.00;99156.81;1224293;75;2921945;-67
2024/01/22 01:17:46;;;;;;;13.30;9.95;;;;;;;-7.16;100.00;99151.59;1225098;75;2917071;-65
2024/01/22 01:20:19;;;;;;;14.80;11.65;;;;;;;-7.15;100.00;99145.16;1224847;75;2922600;-65
2024/01/22 01:22:52;;;;;;;12.30;9.30;;;;;;;-7.07;100.00;99137.16;1224379;75;2928626;-62
2024/01/22 01:25:25;;;;;;;11.90;9.05;;;;;;;-7.11;100.00;99133.56;1225702;75;2922488;-66
2024/01/22 01:28:00;;;;;;;14.05;9.60;;;;;;;-7.31;100.00;99118.31;1225381;75;2915779;-68
2024/01/22 01:30:33;;;;;;;12.00;9.15;;;;;;;-7.16;100.00;99114.34;1224881;75;2919697;-66
2024/01/22 01:33:06;;;;;;;12.50;8.55;;;;;;;-7.23;100.00;99109.53;1225226;75;2916669;-67
2024/01/22 01:35:39;;;;;;;12.50;9.00;;;;;;;-7.18;100.00;99101.34;1225407;75;2924543;-64
2024/01/22 01:38:12;;;;;;;13.00;8.50;;;;;;;-7.17;100.00;99100.25;1224634;75;2920129;-65
2024/01/22 01:40:45;;;;;;;14.05;8.70;;;;;;;-7.16;100.00;99101.03;1224849;75;2919089;-68
2024/01/22 01:43:22;;;;;;;13.15;9.85;;;;;;;-7.27;100.00;99095.28;1224810;75;2925186;-65
2024/01/22 01:45:55;;;;;;;16.60;10.40;;;;;;;-7.22;100.00;99104.97;1225829;75;2919099;-66
2024/01/22 01:48:28;;;;;;;14.30;10.35;;;;;;;-7.18;100.00;99095.25;1225271;67;2925993;-65
2024/01/22 01:51:01;;;;;;;15.90;10.75;;;;;;;-7.47;100.00;99096.81;1224678;75;2927219;-64
2024/01/22 01:53:35;;;;;;;17.80;12.00;;;;;;;-7.56;100.00;99094.19;1225306;75;2877687;-67
2024/01/22 01:56:10;;;;;;;22.10;14.95;;;;;;;-7.61;100.00;99098.91;1225315;75;2916551;-65
2024/01/22 01:58:46;;;;;;;20.85;13.70;;;;;;;-7.54;100.00;99102.63;1151113;75;9006142;-63
2024/01/22 02:01:19;;;;;;;19.95;13.05;;;;;;;-7.66;100.00;99097.19;1224565;75;2917049;-66
2024/01/22 02:03:52;;;;;;;19.20;13.15;;;;;;;-7.64;100.00;99091.56;1224944;75;2924933;-63
2024/01/22 02:06:22;;;;;;;16.15;12.45;;;;;;;-7.71;100.00;99092.84;1226026;75;2919183;-65
2024/01/22 02:08:55;;;;;;;14.75;11.00;;;;;;;-7.53;100.00;99090.91;1225937;75;2921094;-67
2024/01/22 02:11:28;;;;;;;14.30;9.90;;;;;;;-7.53;100.00;99080.25;1225077;75;2921268;-68
2024/01/22 02:14:04;;;;;;;13.40;9.40;;;;;;;-7.55;100.00;99079.78;1224015;75;2920768;-64
2024/01/22 02:16:37;;;;;;;13.75;9.15;;;;;;;-7.50;100.00;99066.31;1224827;75;2918765;-66
2024/01/22 02:19:10;;;;;;;12.15;8.65;;;;;;;-7.65;100.00;99069.50;1225071;75;2922065;-65
2024/01/22 02:21:42;;;;;;;11.90;9.00;;;;;;;-7.77;100.00;99066.72;1225299;67;2926794;-65
2024/01/22 02:24:18;;;;;;;12.35;8.65;;;;;;;-7.62;100.00;99057.47;1225456;75;2917517;-66
2024/01/22 02:26:51;;;;;;;10.75;7.80;;;;;;;-7.67;100.00;99052.31;1224325;75;2920461;-64
2024/01/22 02:29:23;;;;;;;9.20;6.95;;;;;;;-7.69;100.00;99054.53;1225046;75;2918997;-65
2024/01/22 02:31:58;;;;;;;11.25;7.35;;;;;;;-7.69;100.00;99044.66;1225308;75;2920656;-67
2024/01/22 02:34:31;;;;;;;9.95;6.70;;;;;;;-7.71;100.00;99052.19;1224032;75;2917388;-65
2024/01/22 02:37:03;;;;;;;9.90;6.70;;;;;;;-7.68;100.00;99048.88;1225243;75;2923879;-62
2024/01/22 02:39:39;;;;;;;9.25;6.00;;;;;;;-7.72;100.00;99042.63;1225615;75;2914390;-66
2024/01/22 02:42:12;;;;;;;8.45;6.95;;;;;;;-7.75;100.00;99046.72;1224874;75;2922214;-65
2024/01/22 02:44:45;;;;;;;9.75;6.60;;;;;;;-7.81;100.00;99041.91;1225117;75;2922238;-67
2024/01/22 02:47:18;;;;;;;10.55;7.85;;;;;;;-7.94;100.00;99036.50;1224592;75;2922559;-66
2024/01/22 02:49:51;;;;;;;16.65;10.95;;;;;;;-7.94;100.00;99036.50;1224039;75;2926205;-64
2024/01/22 02:52:24;;;;;;;12.35;10.45;;;;;;;-7.86;100.00;99032.22;1225010;75;2925147;-66
2024/01/22 02:54:59;;;;;;;12.90;9.45;;;;;;;-7.97;100.00;99028.34;1224537;75;2918498;-67
2024/01/22 02:57:32;;;;;;;13.25;8.95;;;;;;;-7.94;100.00;99033.84;1224829;75;2924712;-66
2024/01/22 03:00:05;;;;;;;10.15;7.80;;;;;;;-7.90;100.00;99031.31;1224561;75;2925647;-65
2024/01/22 03:02:38;;;;;;;10.30;7.65;;;;;;;-7.95;100.00;99026.94;1224470;75;2917267;-65
2024/01/22 03:05:12;;;;;;;12.40;7.15;;;;;;;-7.93;100.00;99026.63;1225459;75;2922109;-65
2024/01/22 03:07:44;;;;;;;11.35;7.80;;;;;;;-8.07;100.00;99015.44;1224243;75;2923214;-64
2024/01/22 03:10:20;;;;;;;12.70;7.80;;;;;;;-8.04;100.00;98994.31;1224099;75;2923222;-66
2024/01/22 03:12:53;;;;;;;9.95;7.40;;;;;;;-8.07;100.00;98994.19;1224138;75;2926209;-66
2024/01/22 03:15:26;;;;;;;8.95;6.60;;;;;;;-7.98;100.00;98985.06;1225535;75;2917927;-67
2024/01/22 03:17:58;;;;;;;10.65;7.75;;;;;;;-7.97;100.00;98985.84;1224516;75;2926679;-66
2024/01/22 03:20:31;;;;;;;10.65;7.35;;;;;;;-7.99;100.00;98988.03;1224169;75;2930191;-66
2024/01/22 03:23:04;;;;;;;12.85;9.35;;;;;;;-8.03;100.00;98977.28;1224859;75;2921413;-62
2024/01/22 03:25:39;;;;;;;11.70;8.75;;;;;;;-7.95;100.00;98973.03;1223690;75;2921049;-66
2024/01/22 03:28:12;;;;;;;13.75;9.20;;;;;;;-8.04;100.00;98973.06;1224210;75;2922268;-67
2024/01/22 03:30:45;;;;;;;10.65;7.55;;;;;;;-8.01;100.00;98967.13;1225101;75;2922182;-66
2024/01/22 03:33:18;;;;;;;9.45;6.90;;;;;;;-7.98;100.00;98969.13;1224596;75;2921895;-64
2024/01/22 03:35:50;;;;;;;12.10;8.50;;;;;;;-7.98;100.00;98960.38;1223955;75;2929169;-64
2024/01/22 03:38:23;;;;;;;10.25;7.95;;;;;;;-7.94;100.00;98967.41;1225014;75;2926300;-67
2024/01/22 03:40:59;;;;;;;14.15;10.05;;;;;;;-8.07;100.00;98970.25;1225313;75;2925973;-65
2024/01/22 03:43:31;;;;;;;23.50;15.60;;;;;;;-8.14;100.00;98968.88;1224520;75;2930734;-66
2024/01/22 03:46:04;;;;;;;23.20;14.70;;;;;;;-8.06;100.00;98969.16;1224823;75;2921573;-65
2024/01/22 03:48:37;;;;;;;16.75;12.35;;;;;;;-7.93;100.00;98978.81;1224833;75;2920902;-64
2024/01/22 03:51:11;;;;;;;14.65;11.75;;;;;;;-8.02;100.00;98972.75;1224353;75;2918145;-66
2024/01/22 03:53:43;;;;;;;16.55;11.50;;;;;;;-8.14;100.00;98960.13;1224065;75;2929173;-65
2024/01/22 03:56:22;;;;;;;16.85;12.85;;;;;;;-8.18;100.00;98961.84;1224597;75;2923247;-64
2024/01/22 03:58:55;;;;;;;16.80;11.80;;;;;;;-8.19;100.00;98960.31;1223359;75;2927385;-64
2024/01/22 04:01:28;;;;;;;15.25;10.70;;;;;;;-8.28;100.00;98947.06;1225460;75;2928986;-67
2024/01/22 04:04:01;;;;;;;16.80;11.10;;;;;;;-8.21;100.00;98941.25;1223373;75;2931318;-66
2024/01/22 04:06:34;;;;;;;17.10;10.25;;;;;;;-8.21;100.00;98936.72;1224115;75;2933792;-63
2024/01/22 04:09:07;;;;;;;16.35;11.80;;;;;;;-8.29;100.00;98920.81;1224769;75;2915988;-66
2024/01/22 04:11:42;;;;;;;14.90;10.75;;;;;;;-8.17;100.00;98923.59;1213552;75;3733977;-64
2024/01/22 04:14:15;;;;;;;13.65;9.85;;;;;;;-8.21;100.00;98930.63;1224203;75;2922397;-66
2024/01/22 04:16:48;;;;;;;11.60;8.85;;;;;;;-8.18;100.00;98929.97;1224059;75;2917178;-66
2024/01/22 04:19:21;;;;;;;11.05;7.80;;;;;;;-8.16;100.00;98931.22;1223689;75;2930209;-62
2024/01/22 04:21:54;;;;;;;11.85;8.50;;;;;;;-8.30;100.00;98927.22;1222974;75;2939759;-65
2024/01/22 04:24:26;;;;;;;16.35;11.45;;;;;;;-8.27;100.00;98938.00;1224400;75;2922974;-65
2024/01/22 04:27:02;;;;;;;15.25;11.05;;;;;;;-8.16;100.00;98933.09;1224313;75;2920773;-65
2024/01/22 04:29:36;;;;;;;13.90;9.65;;;;;;;-8.27;100.00;98939.84;1224312;75;2924806;-66
2024/01/22 04:32:10;;;;;;;12.65;9.65;;;;;;;-8.46;100.00;98935.75;1224309;75;2928766;-65
2024/01/22 04:34:44;;;;;;;13.45;8.90;;;;;;;-8.35;100.00;98939.56;1223457;75;2936230;-64
2024/01/22 04:37:17;;;;;;;13.10;8.75;;;;;;;-8.46;100.00;98934.97;1224335;75;2925217;-66
2024/01/22 04:39:50;;;;;;;11.35;7.70;;;;;;;-8.31;100.00;98931.00;1223590;75;2922169;-66
2024/01/22 04:42:25;;;;;;;9.25;7.15;;;;;;;-8.32;100.00;98924.09;1224268;75;2931283;-64
2024/01/22 04:44:59;;;;;;;10.20;7.60;;;;;;;-8.32;100.00;98921.44;1222173;75;2962249;-67
2024/01/22 04:47:33;;;;;;;11.85;7.75;;;;;;;-8.37;100.00;98925.84;1224506;75;2883552;-65
2024/01/22 04:50:07;;;;;;;10.55;7.45;;;;;;;-8.34;100.00;98913.81;1224744;75;2919918;-67
2024/01/22 04:52:40;;;;;;;12.80;7.40;;;;;;;-8.40;100.00;98905.25;1223871;75;2930684;-65
2024/01/22 04:55:13;;;;;;;21.20;12.75;;;;;;;-8.44;100.00;98907.00;1224280;75;2918905;-65
2024/01/22 04:57:48;;;;;;;28.20;15.15;;;;;;;-8.55;100.00;98911.09;1225607;75;2919248;-62
2024/01/22 05:00:21;;;;;;;33.10;19.10;;;;;;;-8.43;100.00;98905.13;1223723;75;2930829;-63
2024/01/22 05:02:54;;;;;;;26.95;16.70;;;;;;;-8.57;100.00;98908.75;1223253;75;2926119;-66
2024/01/22 05:05:27;;;;;;;31.05;17.50;;;;;;;-8.50;100.00;98907.50;1222427;75;2924299;-64
2024/01/22 05:08:00;;;;;;;25.30;14.35;;;;;;;-8.46;100.00;98903.13;1224710;75;2922516;-66
2024/01/22 05:10:33;;;;;;;22.00;12.75;;;;;;;-8.42;100.00;98915.44;1224083;75;2930408;-66
2024/01/22 05:13:08;;;;;;;19.25;12.35;;;;;;;-8.50;100.00;98918.88;1224579;75;2926408;-65
2024/01/22 05:15:41;;;;;;;18.75;12.70;;;;;;;-8.36;100.00;98918.66;1224066;75;2920825;-63
2024/01/22 05:18:14;;;;;;;18.65;11.50;;;;;;;-8.40;100.00;98925.72;1224172;75;2922352;-65
2024/01/22 05:20:47;;;;;;;16.30;10.65;;;;;;;-8.52;100.00;98923.72;1224881;75;2923937;-65
2024/01/22 05:23:19;;;;;;;13.65;9.55;;;;;;;-8.41;100.00;98924.94;1224102;75;2929753;-65
2024/01/22 05:25:52;;;;;;;14.35;9.40;;;;;;;-8.42;100.00;98914.63;1223944;75;2929720;-66
2024/01/22 05:28:28;;;;;;;12.05;8.95;;;;;;;-8.42;100.00;98925.25;1225324;75;2923040;-66
2024/01/22 05:31:00;;;;;;;12.45;9.05;;;;;;;-8.46;100.00;98927.78;1223706;75;2930639;-64
2024/01/22 05:33:33;;;;;;;16.50;10.70;;;;;;;-8.41;100.00;98926.84;1224015;75;2921182;-65
2024/01/22 05:36:07;;;;;;;15.20;9.45;;;;;;;-8.41;100.00;98914.34;1223908;75;2920198;-65
2024/01/22 05:38:44;;;;;;;19.50;12.15;;;;;;;-8.44;100.00;98917.63;1224381;75;2917905;-64
2024/01/22 05:41:16;;;;;;;20.55;12.70;;;;;;;-8.48;100.00;98911.38;1225349;75;2917079;-65
2024/01/22 05:43:52;;;;;;;17.50;11.60;;;;;;;-8.46;100.00;98922.47;1225204;75;2916328;-65
2024/01/22 05:46:25;;;;;;;21.80;13.65;;;;;;;-8.47;100.00;98920.13;1223867;75;2923371;-66
2024/01/22 05:48:58;;;;;;;19.50;13.05;;;;;;;-8.54;100.00;98917.97;1223884;75;2944476;-66
2024/01/22 05:51:30;;;;;;;16.15;10.70;;;;;;;-8.51;100.00;98911.22;1224089;75;2928261;-67
2024/01/22 05:54:03;;;;;;;17.55;11.65;;;;;;;-8.60;100.00;98920.03;1223859;75;2932129;-65
2024/01/22 05:56:36;;;;;;;16.80;11.70;;;;;;;-8.54;100.00;98919.84;1224762;75;2921825;-65
2024/01/22 05:59:12;;;;;;;15.50;10.25;;;;;;;-8.58;100.00;98919.72;1224472;75;2926944;-64
2024/01/22 06:01:45;;;;;;;13.95;9.70;;;;;;;-8.53;100.00;98930.16;1225078;75;2922678;-65
2024/01/22 06:04:18;;;;;;;13.50;9.05;;;;;;;-8.52;100.00;98917.66;1224553;75;2924565;-65
2024/01/22 06:06:51;;;;;;;20.55;13.15;;;;;;;-8.56;100.00;98920.19;1223414;75;2926030;-67
2024/01/22 06:09:24;;;;;;;32.70;19.75;;;;;;;-8.63;100.00;98918.00;1223503;75;2925364;-65
2024/01/22 06:11:56;;;;;;;23.50;17.00;;;;;;;-8.48;100.00;98929.22;1224820;75;2921830;-67
2024/01/22 06:14:32;;;;;;;23.10;15.25;;;;;;;-8.49;100.00;98907.19;1224267;75;2925289;-64
2024/01/22 06:17:05;;;;;;;21.30;14.60;;;;;;;-8.55;100.00;98907.69;1223807;75;2933542;-63
2024/01/22 06:19:37;;;;;;;22.45;15.25;;;;;;;-8.61;100.00;98896.44;1224453;75;2913366;-65
2024/01/22 06:22:12;;;;;;;22.60;13.55;;;;;;;-8.54;100.00;98903.91;1224153;75;2926458;-66
2024/01/22 06:24:47;;;;;;;19.80;12.35;;;;;;;-8.52;100.00;98899.84;1224670;75;2922724;-65
2024/01/22 06:27:20;;;;;;;23.30;14.50;;;;;;;-8.55;100.00;98905.03;1223819;75;2928557;-66
2024/01/22 06:29:59;;;;;;;24.05;13.65;;;;;;;-8.47;100.00;98890.91;1223652;75;2924512;-65
2024/01/22 06:32:33;;;;;;;23.00;14.10;;;;;;;-8.60;100.00;98896.13;1224164;75;2925717;-63
2024/01/22 06:35:06;;;;;;;27.15;16.65;;;;;;;-8.63;100.00;98894.13;1222999;75;3046451;-67
2024/01/22 06:37:39;;;;;;;27.20;17.35;;;;;;;-8.49;100.00;98890.47;1224029;75;2944144;-65
2024/01/22 06:40:16;;;;;;;25.10;15.90;;;;;;;-8.46;100.00;98892.50;1223769;75;2923806;-66
2024/01/22 06:42:48;;;;;;;22.30;14.90;;;;;;;-8.62;100.00;98885.03;1223724;75;2922183;-63
2024/01/22 06:45:27;;;;;;;19.65;13.00;;;;;;;-8.57;100.00;98882.22;1222873;75;2930010;-65
2024/01/22 06:48:00;;;;;;;19.45;12.50;;;;;;;-8.48;100.00;98884.06;1224162;75;2917694;-64
2024/01/22 06:50:34;;;;;;;18.90;11.70;;;;;;;-8.43;100.00;98899.81;1224164;75;2926600;-67
2024/01/22 06:53:07;;;;;;;19.40;12.90;;;;;;;-8.50;100.00;98887.03;1224227;75;2935318;-67
2024/01/22 06:55:40;;;;;;;20.30;12.75;;;;;;;-8.49;100.00;98893.91;1224478;75;2930482;-63
2024/01/22 06:58:13;;;;;;;21.65;11.90;;;;;;;-8.40;100.00;98894.63;1223178;75;2927230;-63
2024/01/22 07:00:49;;;;;;;32.50;17.55;;;;;;;-8.38;100.00;98894.28;1224282;75;2923717;-66
2024/01/22 07:03:22;;;;;;;26.60;15.80;;;;;;;-8.19;100.00;98899.22;1223512;75;2927773;-66
2024/01/22 07:05:55;;;;;;;36.40;19.05;;;;;;;-8.25;100.00;98889.84;1219714;75;2925931;-62
2024/01/22 07:08:28;;;;;;;61.30;29.60;;;;;;;-8.36;100.00;98892.09;1222642;75;2920296;-65
2024/01/22 07:11:01;;;;;;;76.55;36.30;;;;;;;-8.20;100.00;98889.66;1216848;75;3155935;-65
2024/01/22 07:13:35;;;;;;;55.85;28.95;;;;;;;-8.27;100.00;98889.38;1223303;75;2931959;-66
2024/01/22 07:16:11;;;;;;;41.05;23.35;;;;;;;-8.05;100.00;98886.47;1222835;75;2921472;-66
2024/01/22 07:18:44;;;;;;;34.50;20.65;;;;;;;-7.95;100.00;98893.28;1224103;75;2926983;-64
2024/01/22 07:21:17;;;;;;;30.15;18.10;;;;;;;-7.97;100.00;98890.94;1222341;75;2927331;-65
2024/01/22 07:23:50;;;;;;;22.95;14.40;;;;;;;-7.63;100.00;98891.81;1224487;75;2929395;-65
2024/01/22 07:26:23;;;;;;;21.25;15.00;;;;;;;-7.64;100.00;98881.53;1220692;75;2929470;-65
2024/01/22 07:28:55;;;;;;;20.55;13.35;;;;;;;-7.38;100.00;98886.66;1224845;75;2923055;-66
2024/01/22 07:31:31;;;;;;;23.10;14.40;;;;;;;-6.39;100.00;98879.69;1221450;75;2922506;-64
2024/01/22 07:34:04;;;;;;;23.70;15.15;;;;;;;-2.69;93.36;98877.59;1223629;75;2925302;-64
2024/01/22 07:36:37;;;;;;;23.00;14.45;;;;;;;-3.81;87.36;98865.88;1222265;75;2919668;-67
2024/01/22 07:39:11;;;;;;;22.40;14.25;;;;;;;-1.89;81.66;98868.88;1224252;75;2926467;-63
2024/01/22 07:41:44;;;;;;;25.95;16.05;;;;;;;-3.05;80.27;98868.91;1222401;75;2928343;-65
2024/01/22 07:44:16;;;;;;;23.20;14.25;;;;;;;-3.99;86.37;98875.38;1225042;75;2916203;-65
2024/01/22 07:46:52;;;;;;;20.60;13.80;;;;;;;-4.36;89.94;98879.13;1223002;75;2930945;-66
2024/01/22 07:49:25;;;;;;;16.15;11.55;;;;;;;-4.45;92.58;98880.44;1222550;75;2920326;-64
2024/01/22 07:51:58;;;;;;;19.45;13.95;;;;;;;-4.59;94.90;98875.53;1217458;75;3198846;-66
2024/01/22 07:54:31;;;;;;;18.30;14.05;;;;;;;-4.77;97.46;98891.13;1222840;75;2933149;-66
2024/01/22 07:57:04;;;;;;;16.05;12.40;;;;;;;-4.61;98.44;98875.88;1222075;75;2927365;-65
2024/01/22 07:59:37;;;;;;;16.40;11.15;;;;;;;-4.22;95.52;98875.28;1222950;75;2926985;-64
2024/01/22 08:02:13;;;;;;;15.95;11.10;;;;;;;-2.57;87.32;98877.41;1222746;75;2925762;-67
2024/01/22 08:04:46;;;;;;;22.05;14.60;;;;;;;-1.33;79.74;98873.41;1224201;75;2929401;-65
2024/01/22 08:07:19;;;;;;;22.25;14.15;;;;;;;-0.67;88.84;98877.19;1221842;75;2927447;-66
2024/01/22 08:09:52;;;;;;;19.55;13.05;;;;;;;0.61;75.22;98871.13;1223426;75;2924991;-64
2024/01/22 08:12:24;;;;;;;19.70;13.20;;;;;;;1.47;70.02;98859.78;1221712;75;2930302;-64
2024/01/22 08:14:57;;;;;;;20.00;13.55;;;;;;;1.21;68.88;98845.50;1223458;75;2923552;-64
2024/01/22 08:17:35;;;;;;;22.70;15.00;;;;;;;1.38;66.53;98848.59;1215919;75;3190540;-64
2024/01/22 08:20:10;;;;;;;23.80;16.10;;;;;;;1.93;64.90;98853.59;1132280;75;9963217;-62
2024/01/22 08:22:46;;;;;;;23.95;15.50;;;;;;;1.83;64.68;98844.38;1221558;75;2918250;-62
2024/01/22 08:25:27;;;;;;;22.60;14.30;;;;;;;3.16;61.41;98852.00;1223967;75;2972002;-65
2024/01/22 08:28:01;;;;;;;21.10;14.10;;;;;;;1.94;63.28;98848.97;1221716;75;2925814;-64
2024/01/22 08:30:35;;;;;;;21.90;14.68;;;;;;;1.86;63.85;98848.97;1197813;75;5535958;-61
2024/01/22 08:33:11;;;;;;;23.20;15.50;;;;;;;0.15;65.49;98835.91;1220193;75;2935320;-65
2024/01/22 08:35:43;;;;;;;21.10;14.80;;;;;;;1.04;65.14;98838.16;1223156;75;2923991;-66
2024/01/22 08:38:16;;;;;;;19.60;13.45;;;;;;;0.92;65.88;98841.97;1223113;75;2922625;-64
2024/01/22 08:40:49;;;;;;;20.80;13.45;;;;;;;-0.12;69.43;98844.22;1222493;75;2921072;-66
2024/01/22 08:43:22;;;;;;;21.35;15.00;;;;;;;-1.19;74.33;98848.63;1221890;75;2926016;-64
2024/01/22 08:45:55;;;;;;;24.20;15.15;;;;;;;-1.79;76.09;98852.91;1223015;75;2927028;-65
2024/01/22 08:48:30;;;;;;;20.75;14.20;;;;;;;-0.27;73.92;98847.94;1222804;75;2922027;-65
2024/01/22 08:51:03;;;;;;;21.35;14.50;;;;;;;0.46;71.78;98844.50;1222314;75;2923219;-64
2024/01/22 08:53:36;;;;;;;19.45;13.50;;;;;;;1.72;67.79;98849.00;1223783;75;2920642;-65
2024/01/22 08:56:09;;;;;;;22.15;14.65;;;;;;;0.05;71.10;98834.69;1222721;75;2923275;-64
2024/01/22 08:58:42;;;;;;;26.20;16.65;;;;;;;-1.24;75.57;98822.09;1223492;75;2927420;-64
2024/01/22 09:01:15;;;;;;;22.75;16.15;;;;;;;-0.93;75.22;98810.91;1223162;75;2920808;-64
2024/01/22 09:03:50;;;;;;;22.75;16.10;;;;;;;-0.36;75.00;98799.03;1223568;75;2948647;-65
2024/01/22 09:06:23;;;;;;;27.25;18.20;;;;;;;-0.66;75.30;98787.31;1221904;75;2921550;-66
2024/01/22 09:08:55;;;;;;;26.25;18.10;;;;;;;-0.28;76.61;98787.97;1224026;75;2918411;-63
2024/01/22 09:11:28;;;;;;;25.10;17.30;;;;;;;-0.13;74.35;98793.44;1220478;75;2921955;-64
2024/01/22 09:14:00;;;;;;;25.70;18.30;;;;;;;-0.25;77.13;98805.28;1205803;75;4321237;-68
2024/01/22 09:16:33;;;;;;;29.55;18.30;;;;;;;-0.14;76.78;98811.50;1217009;75;3041641;-65
2024/01/22 09:19:08;;;;;;;26.60;16.70;;;;;;;0.90;73.88;98806.53;1223788;75;2921031;-66
2024/01/22 09:21:41;;;;;;;26.20;17.75;;;;;;;1.00;72.78;98808.47;1220584;75;2923602;-66
2024/01/22 09:24:14;;;;;;;28.00;17.10;;;;;;;0.84;71.46;98808.06;1222597;75;2928645;-66
2024/01/22 09:26:46;;;;;;;33.15;17.30;;;;;;;1.07;71.35;98799.63;1222578;75;2920196;-64
2024/01/22 09:29:19;;;;;;;23.75;15.30;;;;;;;0.47;71.93;98789.50;1224169;75;2921671;-66
2024/01/22 09:31:51;;;;;;;23.75;14.65;;;;;;;0.77;69.80;98791.88;1221040;75;2923529;-66
2024/01/22 09:34:27;;;;;;;23.80;14.00;;;;;;;1.31;69.41;98789.25;1224462;75;2924475;-65
2024/01/22 09:36:59;;;;;;;18.95;12.70;;;;;;;1.89;68.60;98774.53;1222606;75;2931242;-63
2024/01/22 09:39:32;;;;;;;18.90;12.25;;;;;;;2.59;65.31;98771.19;1223233;75;2924456;-66
2024/01/22 09:42:05;;;;;;;21.80;13.75;;;;;;;1.21;67.57;98771.91;1222610;75;2937419;-64
2024/01/22 09:44:38;;;;;;;20.20;13.65;;;;;;;2.12;67.70;98757.88;1223521;75;2916379;-66
2024/01/22 09:47:12;;;;;;;20.95;13.10;;;;;;;1.99;66.37;98748.66;1222587;75;2921994;-64
2024/01/22 09:49:50;;;;;;;21.65;11.65;;;;;;;3.84;64.25;98746.59;1224338;75;2916716;-63
2024/01/22 09:52:27;;;;;;;19.30;12.50;;;;;;;3.33;61.93;98737.44;1222034;75;2922852;-64
2024/01/22 09:55:01;;;;;;;20.85;13.50;;;;;;;3.00;64.02;98722.63;1223748;75;2965641;-64
2024/01/22 09:57:35;;;;;;;20.80;13.20;;;;;;;2.56;66.26;98730.25;1220788;75;2947348;-64
2024/01/22 10:00:11;;;;;;;19.75;13.95;;;;;;;2.76;65.70;98719.69;1223214;75;2922819;-64
2024/01/22 10:02:44;;;;;;;20.20;13.70;;;;;;;2.67;66.64;98724.00;1222046;75;2922463;-66
2024/01/22 10:05:20;;;;;;;24.95;14.40;;;;;;;2.08;68.42;98719.31;1223207;75;2917572;-64
2024/01/22 10:07:53;;;;;;;28.55;15.10;;;;;;;1.73;68.99;98707.44;1218806;75;3065390;-64
2024/01/22 10:10:25;;;;;;;23.10;14.60;;;;;;;1.89;68.77;98702.41;1224756;75;2922590;-65
2024/01/22 10:13:07;;;;;;;27.75;15.45;;;;;;;3.07;66.52;98700.16;1222952;75;2921278;-67
2024/01/22 10:15:40;;;;;;;29.60;16.55;;;;;;;2.93;65.58;98695.63;1223629;75;2921184;-67
2024/01/22 10:18:16;;;;;;;24.25;15.20;;;;;;;3.19;64.23;98692.31;1221659;75;2922796;-64
2024/01/22 10:20:52;;;;;;;25.05;14.05;;;;;;;2.68;64.43;98693.13;1222467;75;2948091;-64
2024/01/22 10:23:25;;;;;;;18.35;11.50;;;;;;;3.92;62.61;98689.63;1222343;75;2917693;-66
2024/01/22 10:26:09;;;;;;;18.75;10.30;;;;;;;3.60;60.96;98685.34;1223888;75;2922750;-65
2024/01/22 10:28:42;;;;;;;17.80;11.40;;;;;;;3.31;61.38;98677.53;1222125;75;2920384;-64
2024/01/22 10:31:15;;;;;;;15.65;11.05;;;;;;;3.77;60.39;98673.56;1224211;75;2919179;-65
2024/01/22 10:33:48;;;;;;;19.60;10.60;;;;;;;3.47;60.25;98668.09;1223503;75;2841797;-64
2024/01/22 10:36:24;;;;;;;18.10;9.80;;;;;;;4.15;59.48;98680.84;1222795;75;2923369;-64
2024/01/22 10:39:06;;;;;;;17.10;10.50;;;;;;;4.62;58.08;98673.63;1222975;75;2922599;-67
2024/01/22 10:41:42;;;;;;;15.35;9.75;;;;;;;2.99;59.84;98667.75;1222597;75;2919485;-64
2024/01/22 10:44:15;;;;;;;16.40;10.15;;;;;;;3.34;59.44;98665.91;1218269;75;2922969;-66
2024/01/22 10:46:47;;;;;;;20.65;10.75;;;;;;;2.84;62.07;98666.34;1215960;75;2923106;-66
2024/01/22 10:49:21;;;;;;;17.70;10.85;;;;;;;4.31;61.62;98669.44;1214554;75;2916561;-63
2024/01/22 10:51:57;;;;;;;22.60;13.40;;;;;;;3.28;63.32;98659.38;1219002;75;2930389;-64
2024/01/22 10:54:31;;;;;;;27.65;15.90;;;;;;;3.83;64.00;98663.06;1214986;75;2936369;-66
2024/01/22 10:57:08;;;;;;;22.70;13.75;;;;;;;3.76;63.38;98655.03;1214925;75;2919504;-65
2024/01/22 10:59:43;;;;;;;18.00;11.60;;;;;;;3.54;63.33;98652.56;1214744;75;2932572;-63
2024/01/22 11:02:24;;;;;;;18.30;11.90;;;;;;;3.18;64.42;98644.03;1215820;75;2926947;-65
2024/01/22 11:05:04;;;;;;;16.55;9.85;;;;;;;3.08;64.54;98642.19;1219620;75;2929854;-66
2024/01/22 11:07:43;;;;;;;14.55;9.70;;;;;;;3.63;64.47;98643.94;1223074;75;2919607;-66
2024/01/22 11:10:18;;;;;;;14.90;9.90;;;;;;;2.77;65.63;98636.66;1222503;75;2922709;-64
2024/01/22 11:12:54;;;;;;;17.45;11.05;;;;;;;3.06;65.78;98631.00;1224589;75;2925152;-62
2024/01/22 11:15:27;;;;;;;14.65;9.60;;;;;;;3.26;65.29;98620.38;1222594;75;2926372;-66
2024/01/22 11:18:00;;;;;;;16.05;9.30;;;;;;;2.99;65.60;98632.59;1223633;75;2922000;-68
2024/01/22 11:20:33;;;;;;;14.70;9.95;;;;;;;3.35;65.22;98626.84;1221210;75;2924514;-67
2024/01/22 11:23:14;;;;;;;22.60;10.70;;;;;;;2.85;65.67;98631.97;1220032;75;3003973;-65
2024/01/22 11:25:47;;;;;;;15.30;10.20;;;;;;;2.63;66.24;98621.31;1222436;75;2922426;-65
2024/01/22 11:28:20;;;;;;;13.75;9.40;;;;;;;2.33;66.91;98622.69;1222611;75;2931777;-66
2024/01/22 11:30:53;;;;;;;13.95;10.20;;;;;;;2.25;66.70;98610.38;1222227;75;2925802;-65